createdAt,value
2018-03-01T00:02:13.281Z,99740.95
2018-03-01T00:04:40.760Z,99741.37
2018-03-01T00:07:08.246Z,99742.16
2018-03-01T00:09:35.711Z,99739.85
2018-03-01T00:12:03.204Z,99738.25
2018-03-01T00:14:30.675Z,99745.14
2018-03-01T00:16:58.164Z,99738.77
2018-03-01T00:19:25.720Z,99734.87
2018-03-01T00:21:53.144Z,99731.69
2018-03-01T00:24:20.632Z,99742.81
2018-03-01T00:26:48.103Z,99745.38
2018-03-01T00:29:15.593Z,99752.23
2018-03-01T00:31:43.054Z,99757.52
2018-03-01T00:34:10.542Z,99748.20
2018-03-01T00:36:38.007Z,99755.30
2018-03-01T00:39:05.486Z,99754.25
2018-03-01T00:41:32.955Z,99745.73
2018-03-01T00:44:00.437Z,99753.00
2018-03-01T00:46:27.899Z,99745.63
2018-03-01T00:48:55.390Z,99736.66
2018-03-01T00:51:22.864Z,99740.63
2018-03-01T00:53:50.368Z,99746.88
2018-03-01T00:56:17.827Z,99749.70
2018-03-01T00:58:45.327Z,99750.84
2018-03-01T01:01:12.786Z,99739.62
2018-03-01T01:03:40.271Z,99737.98
2018-03-01T01:06:07.743Z,99731.97
2018-03-01T01:08:35.204Z,99725.19
2018-03-01T01:11:02.691Z,99732.45
2018-03-01T01:13:30.159Z,99726.75
2018-03-01T01:15:57.657Z,99726.09
2018-03-01T01:18:25.132Z,99732.04
2018-03-01T01:20:52.618Z,99724.45
2018-03-01T01:23:20.085Z,99722.62
2018-03-01T01:25:47.572Z,99724.59
2018-03-01T01:28:15.056Z,99723.20
2018-03-01T01:30:42.544Z,99721.47
2018-03-01T01:33:12.927Z,99700.18
2018-03-01T01:35:42.258Z,99705.22
2018-03-01T01:43:17.546Z,99684.22
2018-03-01T01:45:45.035Z,99674.39
2018-03-01T01:48:12.495Z,99681.52
2018-03-01T01:50:51.771Z,99672.44
2018-03-01T01:53:19.236Z,99665.49
2018-03-01T01:55:46.718Z,99647.88
2018-03-01T01:58:14.187Z,99652.66
2018-03-01T02:00:41.671Z,99648.15
2018-03-01T02:03:09.126Z,99640.13
2018-03-01T02:05:36.619Z,99646.55
2018-03-01T02:08:04.086Z,99644.98
2018-03-01T02:10:31.576Z,99641.69
2018-03-01T02:12:59.051Z,99638.80
2018-03-01T02:15:26.540Z,99621.06
2018-03-01T02:17:54.008Z,99618.31
2018-03-01T02:20:24.890Z,99623.20
2018-03-01T02:23:00.518Z,99633.69
2018-03-01T02:25:28.003Z,99628.41
2018-03-01T02:27:55.540Z,99598.35
2018-03-01T02:30:26.836Z,99591.65
2018-03-01T02:32:54.332Z,99596.78
2018-03-01T02:35:21.792Z,99585.31
2018-03-01T02:37:49.293Z,99588.10
2018-03-01T02:40:16.767Z,99590.68
2018-03-01T02:42:44.274Z,99587.87
2018-03-01T02:45:11.730Z,99577.06
2018-03-01T02:47:39.232Z,99565.48
2018-03-01T02:50:06.796Z,99550.95
2018-03-01T02:52:34.288Z,99536.36
2018-03-01T02:55:01.752Z,99534.96
2018-03-01T02:57:29.237Z,99534.88
2018-03-01T02:59:56.707Z,99539.43
2018-03-01T03:02:24.223Z,99538.49
2018-03-01T03:04:51.768Z,99525.62
2018-03-01T03:07:19.253Z,99530.00
2018-03-01T03:09:46.734Z,99520.92
2018-03-01T03:12:14.211Z,99515.96
2018-03-01T03:14:41.670Z,99516.61
2018-03-01T03:17:09.177Z,99508.31
2018-03-01T03:19:36.652Z,99504.41
2018-03-01T03:22:04.145Z,99496.00
2018-03-01T03:24:31.616Z,99495.33
2018-03-01T03:26:59.107Z,99495.80
2018-03-01T03:29:26.566Z,99477.41
2018-03-01T03:31:54.031Z,99476.75
2018-03-01T03:34:21.519Z,99472.63
2018-03-01T03:36:48.987Z,99474.36
2018-03-01T03:39:16.471Z,99479.41
2018-03-01T03:41:43.936Z,99468.75
2018-03-01T03:44:11.418Z,99485.74
2018-03-01T03:46:38.894Z,99480.22
2018-03-01T03:49:06.439Z,99487.75
2018-03-01T03:51:33.909Z,99504.48
2018-03-01T03:54:01.432Z,99496.99
2018-03-01T03:56:28.893Z,99493.59
2018-03-01T03:58:56.375Z,99491.12
2018-03-01T04:01:23.844Z,99485.25
2018-03-01T04:03:51.325Z,99481.95
2018-03-01T04:06:18.847Z,99506.23
2018-03-01T04:08:46.336Z,99493.21
2018-03-01T04:11:13.812Z,99490.81
2018-03-01T04:13:41.325Z,99493.69
2018-03-01T04:16:08.788Z,99490.06
2018-03-01T04:18:36.279Z,99490.47
2018-03-01T04:21:03.749Z,99484.94
2018-03-01T04:23:31.235Z,99474.31
2018-03-01T04:25:58.703Z,99471.34
2018-03-01T04:28:26.199Z,99461.61
2018-03-01T04:30:53.663Z,99446.39
2018-03-01T04:33:21.118Z,99446.66
2018-03-01T04:35:48.611Z,99436.87
2018-03-01T04:38:16.076Z,99433.03
2018-03-01T04:40:43.561Z,99428.55
2018-03-01T04:43:11.029Z,99432.34
2018-03-01T04:45:38.507Z,99426.75
2018-03-01T04:48:05.973Z,99434.29
2018-03-01T04:50:33.455Z,99453.17
2018-03-01T04:53:00.919Z,99467.14
2018-03-01T04:55:28.439Z,99472.18
2018-03-01T04:57:55.915Z,99478.69
2018-03-01T05:00:23.403Z,99478.03
2018-03-01T05:02:50.871Z,99480.27
2018-03-01T05:05:18.383Z,99467.56
2018-03-01T05:07:45.845Z,99459.96
2018-03-01T05:10:13.327Z,99459.47
2018-03-01T05:12:40.801Z,99448.34
2018-03-01T05:15:08.301Z,99464.98
2018-03-01T05:17:35.813Z,99464.74
2018-03-01T05:20:03.304Z,99460.72
2018-03-01T05:22:30.785Z,99456.17
2018-03-01T05:24:59.693Z,99447.91
2018-03-01T05:27:27.159Z,99445.37
2018-03-01T05:29:54.647Z,99438.19
2018-03-01T05:32:22.116Z,99439.08
2018-03-01T05:34:49.611Z,99438.41
2018-03-01T05:37:17.112Z,99440.98
2018-03-01T05:39:44.580Z,99435.23
2018-03-01T05:42:12.071Z,99430.02
2018-03-01T05:44:39.531Z,99427.30
2018-03-01T05:47:07.023Z,99438.34
2018-03-01T05:49:34.479Z,99437.69
2018-03-01T05:52:01.963Z,99446.44
2018-03-01T05:54:29.431Z,99442.38
2018-03-01T05:56:56.960Z,99444.22
2018-03-01T05:59:24.422Z,99440.48
2018-03-01T06:01:51.920Z,99423.31
2018-03-01T06:04:19.384Z,99413.81
2018-03-01T06:06:46.867Z,99412.08
2018-03-01T06:09:14.335Z,99416.44
2018-03-01T06:11:42.299Z,99419.59
2018-03-01T06:14:09.763Z,99430.39
2018-03-01T06:16:37.592Z,99435.25
2018-03-01T06:19:05.060Z,99429.56
2018-03-01T06:21:33.336Z,99433.99
2018-03-01T06:24:00.809Z,99431.20
2018-03-01T06:26:28.301Z,99434.63
2018-03-01T06:28:55.767Z,99417.88
2018-03-01T06:31:23.284Z,99423.02
2018-03-01T06:33:50.776Z,99415.23
2018-03-01T06:36:18.235Z,99403.39
2018-03-01T06:38:45.724Z,99407.72
2018-03-01T06:41:13.194Z,99407.16
2018-03-01T06:43:40.676Z,99412.68
2018-03-01T06:46:08.133Z,99398.95
2018-03-01T06:48:35.660Z,99405.20
2018-03-01T06:51:03.123Z,99403.91
2018-03-01T06:53:30.611Z,99405.96
2018-03-01T06:55:58.100Z,99398.59
2018-03-01T06:58:25.610Z,99398.94
2018-03-01T07:00:53.087Z,99390.09
2018-03-01T07:03:20.571Z,99389.38
2018-03-01T07:05:48.069Z,99382.82
2018-03-01T07:08:15.540Z,99385.48
2018-03-01T07:10:43.012Z,99378.48
2018-03-01T07:13:10.491Z,99376.23
2018-03-01T07:15:37.951Z,99374.28
2018-03-01T07:18:05.440Z,99383.02
2018-03-01T07:20:32.903Z,99376.06
2018-03-01T07:23:00.400Z,99371.80
2018-03-01T07:25:27.900Z,99386.04
2018-03-01T07:27:55.402Z,99396.32
2018-03-01T07:30:22.876Z,99387.78
2018-03-01T07:32:50.359Z,99396.48
2018-03-01T07:35:17.825Z,99396.55
2018-03-01T07:37:45.310Z,99392.77
2018-03-01T07:40:12.860Z,99375.83
2018-03-01T07:42:41.220Z,99372.30
2018-03-01T07:45:08.700Z,99365.22
2018-03-01T07:47:36.199Z,99356.38
2018-03-01T07:50:03.663Z,99348.69
2018-03-01T07:52:31.129Z,99349.47
2018-03-01T07:54:58.607Z,99343.89
2018-03-01T07:57:26.085Z,99344.70
2018-03-01T07:59:53.566Z,99345.16
2018-03-01T08:02:21.037Z,99343.83
2018-03-01T08:04:48.528Z,99337.96
2018-03-01T08:07:16.000Z,99340.24
2018-03-01T08:09:43.495Z,99330.92
2018-03-01T08:12:10.961Z,99323.34
2018-03-01T08:14:38.439Z,99315.39
2018-03-01T08:17:05.915Z,99300.70
2018-03-01T08:19:34.036Z,99312.68
2018-03-01T08:22:01.508Z,99302.01
2018-03-01T08:24:29.000Z,99312.01
2018-03-01T08:26:56.476Z,99297.39
2018-03-01T08:29:23.987Z,99306.34
2018-03-01T08:31:51.455Z,99305.16
2018-03-01T08:34:18.954Z,99320.47
2018-03-01T08:36:46.418Z,99321.69
2018-03-01T08:39:14.136Z,99317.64
2018-03-01T08:41:41.617Z,99312.70
2018-03-01T08:44:09.104Z,99311.43
2018-03-01T08:46:36.598Z,99325.50
2018-03-01T08:49:04.092Z,99313.66
2018-03-01T08:51:31.599Z,99311.12
2018-03-01T08:53:59.074Z,99311.59
2018-03-01T08:56:26.579Z,99303.39
2018-03-01T08:58:54.074Z,99285.59
2018-03-01T09:01:21.577Z,99288.41
2018-03-01T09:03:49.067Z,99279.86
2018-03-01T09:06:16.566Z,99279.66
2018-03-01T09:08:44.052Z,99272.97
2018-03-01T09:11:11.528Z,99266.52
2018-03-01T09:13:39.024Z,99262.49
2018-03-01T09:16:06.505Z,99249.02
2018-03-01T09:18:33.964Z,99245.84
2018-03-01T09:21:01.448Z,99241.94
2018-03-01T09:23:28.903Z,99243.03
2018-03-01T09:25:56.387Z,99256.06
2018-03-01T09:28:23.856Z,99252.40
2018-03-01T09:30:51.341Z,99247.77
2018-03-01T09:33:18.808Z,99240.29
2018-03-01T09:35:46.297Z,99233.34
2018-03-01T09:38:13.767Z,99237.09
2018-03-01T09:40:41.256Z,99247.58
2018-03-01T09:43:08.723Z,99238.85
2018-03-01T09:45:36.212Z,99236.17
2018-03-01T09:48:03.683Z,99236.02
2018-03-01T09:50:32.115Z,99227.53
2018-03-01T09:52:59.581Z,99234.29
2018-03-01T09:55:27.068Z,99226.52
2018-03-01T09:57:54.535Z,99233.85
2018-03-01T10:00:22.028Z,99237.26
2018-03-01T10:02:49.492Z,99223.25
2018-03-01T10:05:16.978Z,99222.11
2018-03-01T10:07:44.448Z,99212.97
2018-03-01T10:10:11.970Z,99219.42
2018-03-01T10:12:39.430Z,99212.48
2018-03-01T10:15:06.915Z,99221.70
2018-03-01T10:17:34.381Z,99212.48
2018-03-01T10:20:01.865Z,99217.20
2018-03-01T10:22:29.326Z,99220.77
2018-03-01T10:24:56.836Z,99222.72
2018-03-01T10:27:27.172Z,99218.71
2018-03-01T10:29:54.656Z,99201.52
2018-03-01T10:32:22.123Z,99190.86
2018-03-01T10:34:49.628Z,99204.27
2018-03-01T10:37:17.083Z,99193.82
2018-03-01T10:39:44.553Z,99179.50
2018-03-01T10:42:12.039Z,99168.93
2018-03-01T10:44:39.499Z,99162.89
2018-03-01T10:47:12.667Z,99158.89
2018-03-01T10:49:40.141Z,99148.25
2018-03-01T10:52:07.619Z,99147.33
2018-03-01T10:54:35.088Z,99150.81
2018-03-01T10:57:02.603Z,99143.21
2018-03-01T10:59:30.089Z,99144.95
2018-03-01T11:02:00.114Z,99138.96
2018-03-01T11:04:27.592Z,99147.97
2018-03-01T11:06:55.075Z,99146.20
2018-03-01T11:09:22.539Z,99140.15
2018-03-01T11:11:50.011Z,99124.16
2018-03-01T11:14:17.483Z,99132.34
2018-03-01T11:16:44.957Z,99120.52
2018-03-01T11:19:12.411Z,99120.48
2018-03-01T11:21:39.916Z,99121.59
2018-03-01T11:24:07.380Z,99116.06
2018-03-01T11:26:34.847Z,99115.94
2018-03-01T11:29:02.296Z,99099.47
2018-03-01T11:31:29.771Z,99089.18
2018-03-01T11:33:57.231Z,99085.63
2018-03-01T11:36:24.704Z,99082.52
2018-03-01T11:38:52.158Z,99064.65
2018-03-01T11:41:19.635Z,99062.87
2018-03-01T11:43:47.087Z,99058.09
2018-03-01T11:46:14.562Z,99042.98
2018-03-01T11:48:42.015Z,99041.97
2018-03-01T11:51:09.492Z,99036.85
2018-03-01T11:53:36.952Z,99040.53
2018-03-01T11:56:04.428Z,99031.03
2018-03-01T11:58:31.878Z,99037.55
2018-03-01T12:00:59.561Z,99035.13
2018-03-01T12:03:27.031Z,99026.44
2018-03-01T12:05:54.491Z,99021.36
2018-03-01T12:08:21.965Z,99006.52
2018-03-01T12:10:49.423Z,99022.44
2018-03-01T12:13:16.916Z,99031.00
2018-03-01T12:15:44.385Z,99024.47
2018-03-01T12:18:11.864Z,99031.81
2018-03-01T12:20:39.340Z,99021.81
2018-03-01T12:23:06.824Z,99025.53
2018-03-01T12:25:34.279Z,99031.03
2018-03-01T12:28:01.760Z,99032.84
2018-03-01T12:30:29.212Z,99030.63
2018-03-01T12:32:56.696Z,99027.25
2018-03-01T12:35:24.152Z,99024.87
2018-03-01T12:37:51.636Z,99011.82
2018-03-01T12:40:19.102Z,99004.55
2018-03-01T12:42:46.585Z,98995.91
2018-03-01T12:45:14.052Z,98992.96
2018-03-01T12:47:41.528Z,98990.77
2018-03-01T12:50:08.992Z,98985.06
2018-03-01T12:52:36.478Z,98985.17
2018-03-01T12:55:03.940Z,98962.94
2018-03-01T12:57:31.436Z,98951.48
2018-03-01T12:59:58.892Z,98947.70
2018-03-01T13:02:26.366Z,98939.72
2018-03-01T13:04:56.317Z,98953.34
2018-03-01T13:07:23.792Z,98933.84
2018-03-01T13:09:51.263Z,98939.55
2018-03-01T13:12:18.744Z,98956.86
2018-03-01T13:14:46.211Z,98955.63
2018-03-01T13:17:13.707Z,98961.65
2018-03-01T13:19:41.169Z,98956.73
2018-03-01T13:22:08.663Z,98953.08
2018-03-01T13:24:36.139Z,98956.02
2018-03-01T13:27:03.591Z,98955.20
2018-03-01T13:29:31.077Z,98938.23
2018-03-01T13:31:59.279Z,98935.59
2018-03-01T13:34:31.516Z,98939.26
2018-03-01T13:36:59.018Z,98934.91
2018-03-01T13:39:26.472Z,98921.08
2018-03-01T13:41:57.528Z,98920.48
2018-03-01T13:44:25.034Z,98925.47
2018-03-01T13:46:54.021Z,98923.02
2018-03-01T13:49:21.495Z,98924.82
2018-03-01T13:51:48.966Z,98918.41
2018-03-01T13:54:16.462Z,98910.72
2018-03-01T13:56:44.841Z,98910.73
2018-03-01T13:59:12.324Z,98905.82
2018-03-01T14:01:39.803Z,98902.45
2018-03-01T14:04:07.283Z,98908.81
2018-03-01T14:06:34.759Z,98906.28
2018-03-01T14:09:02.232Z,98908.19
2018-03-01T14:11:29.699Z,98901.23
2018-03-01T14:13:58.395Z,98899.64
2018-03-01T14:16:25.859Z,98896.20
2018-03-01T14:18:59.000Z,98892.49
2018-03-01T14:21:36.379Z,98897.17
2018-03-01T14:24:05.270Z,98892.84
2018-03-01T14:26:33.254Z,98889.39
2018-03-01T14:29:06.192Z,98883.11
2018-03-01T14:31:33.643Z,98876.19
2018-03-01T14:34:01.128Z,98867.91
2018-03-01T14:36:28.589Z,98851.80
2018-03-01T14:38:56.068Z,98845.91
2018-03-01T14:41:23.534Z,98842.61
2018-03-01T14:43:51.024Z,98852.80
2018-03-01T14:46:18.501Z,98842.50
2018-03-01T14:48:46.009Z,98838.30
2018-03-01T14:51:13.463Z,98834.77
2018-03-01T14:53:41.458Z,98847.42
2018-03-01T14:56:08.944Z,98831.99
2018-03-01T14:58:36.471Z,98824.75
2018-03-01T15:01:03.957Z,98827.38
2018-03-01T15:03:31.463Z,98819.20
2018-03-01T15:05:58.931Z,98817.27
2018-03-01T15:08:26.395Z,98816.12
2018-03-01T15:10:53.888Z,98813.55
2018-03-01T15:13:21.367Z,98824.87
2018-03-01T15:15:48.848Z,98831.36
2018-03-01T15:18:16.311Z,98816.00
2018-03-01T15:20:43.827Z,98808.01
2018-03-01T15:23:11.299Z,98802.45
2018-03-01T15:25:38.791Z,98786.34
2018-03-01T15:28:06.300Z,98784.25
2018-03-01T15:30:33.845Z,98782.84
2018-03-01T15:33:01.327Z,98774.83
2018-03-01T15:35:28.804Z,98775.91
2018-03-01T15:37:56.263Z,98779.48
2018-03-01T15:40:23.764Z,98783.77
2018-03-01T15:42:51.231Z,98777.81
2018-03-01T15:45:18.714Z,98783.94
2018-03-01T15:47:46.180Z,98784.21
2018-03-01T15:50:13.683Z,98775.53
2018-03-01T15:52:41.155Z,98780.14
2018-03-01T15:55:08.635Z,98775.52
2018-03-01T15:57:36.098Z,98782.95
2018-03-01T16:00:03.579Z,98776.84
2018-03-01T16:02:31.099Z,98784.77
2018-03-01T16:04:58.583Z,98790.16
2018-03-01T16:07:26.050Z,98790.32
2018-03-01T16:09:53.527Z,98799.75
2018-03-01T16:12:20.999Z,98785.53
2018-03-01T16:14:48.488Z,98786.91
2018-03-01T16:17:15.960Z,98785.89
2018-03-01T16:19:43.444Z,98785.22
2018-03-01T16:22:10.904Z,98795.42
2018-03-01T16:24:38.379Z,98797.23
2018-03-01T16:27:05.843Z,98793.92
2018-03-01T16:29:33.328Z,98800.88
2018-03-01T16:32:00.814Z,98799.66
2018-03-01T16:34:28.271Z,98799.30
2018-03-01T16:36:55.760Z,98795.77
2018-03-01T16:39:23.227Z,98789.16
2018-03-01T16:41:50.713Z,98789.62
2018-03-01T16:44:18.172Z,98792.75
2018-03-01T16:46:45.655Z,98788.65
2018-03-01T16:49:14.024Z,98793.41
2018-03-01T16:51:42.352Z,98778.59
2018-03-01T16:54:09.840Z,98788.01
2018-03-01T16:56:37.316Z,98794.91
2018-03-01T16:59:04.776Z,98801.16
2018-03-01T17:01:32.255Z,98800.56
2018-03-01T17:03:59.707Z,98801.72
2018-03-01T17:06:27.188Z,98797.30
2018-03-01T17:08:54.670Z,98784.67
2018-03-01T17:11:22.167Z,98789.37
2018-03-01T17:13:55.980Z,98789.70
2018-03-01T17:16:23.510Z,98795.12
2018-03-01T17:18:50.978Z,98791.34
2018-03-01T17:21:18.464Z,98787.73
2018-03-01T17:23:45.940Z,98781.63
2018-03-01T17:26:13.423Z,98773.64
2018-03-01T17:28:41.671Z,98785.25
2018-03-01T17:31:09.158Z,98782.41
2018-03-01T17:33:36.632Z,98780.25
2018-03-01T17:36:04.117Z,98768.83
2018-03-01T17:38:31.585Z,98782.80
2018-03-01T17:41:02.806Z,98786.66
2018-03-01T17:43:33.324Z,98789.75
2018-03-01T17:46:00.832Z,98797.69
2018-03-01T17:48:28.311Z,98796.67
2018-03-01T17:50:55.839Z,98786.81
2018-03-01T17:53:23.315Z,98792.91
2018-03-01T17:55:50.805Z,98791.30
2018-03-01T17:58:18.267Z,98787.81
2018-03-01T18:00:45.732Z,98787.26
2018-03-01T18:03:13.213Z,98782.41
2018-03-01T18:05:40.676Z,98780.11
2018-03-01T18:08:08.168Z,98781.66
2018-03-01T18:10:35.637Z,98772.03
2018-03-01T18:13:03.119Z,98774.70
2018-03-01T18:15:30.588Z,98776.93
2018-03-01T18:17:58.063Z,98786.14
2018-03-01T18:20:25.532Z,98790.05
2018-03-01T18:22:53.041Z,98794.44
2018-03-01T18:25:20.509Z,98788.97
2018-03-01T18:27:47.999Z,98783.94
2018-03-01T18:30:15.465Z,98783.65
2018-03-01T18:32:42.952Z,98784.73
2018-03-01T18:35:10.416Z,98778.30
2018-03-01T18:37:37.916Z,98781.47
2018-03-01T18:40:05.390Z,98779.22
2018-03-01T18:42:32.883Z,98778.90
2018-03-01T18:45:00.347Z,98783.30
2018-03-01T18:47:27.840Z,98781.72
2018-03-01T18:49:55.307Z,98772.00
2018-03-01T18:52:22.787Z,98764.84
2018-03-01T18:54:50.256Z,98772.28
2018-03-01T18:57:17.743Z,98764.21
2018-03-01T18:59:45.207Z,98770.67
2018-03-01T19:02:12.696Z,98764.55
2018-03-01T19:04:40.159Z,98760.50
2018-03-01T19:07:07.657Z,98760.59
2018-03-01T19:09:35.125Z,98752.11
2018-03-01T19:12:03.679Z,98754.96
2018-03-01T19:14:32.468Z,98749.77
2018-03-01T19:17:01.484Z,98752.05
2018-03-01T19:19:32.529Z,98755.52
2018-03-01T19:22:02.146Z,98755.42
2018-03-01T19:24:29.620Z,98758.28
2018-03-01T19:26:57.082Z,98752.13
2018-03-01T19:29:24.802Z,98745.61
2018-03-01T19:31:52.293Z,98730.27
2018-03-01T19:34:23.627Z,98731.28
2018-03-01T19:36:51.148Z,98732.20
2018-03-01T19:39:18.663Z,98734.60
2018-03-01T19:41:46.148Z,98726.41
2018-03-01T19:44:13.673Z,98737.98
2018-03-01T19:46:41.445Z,98730.73
2018-03-01T19:49:08.972Z,98733.91
2018-03-01T19:51:37.108Z,98736.36
2018-03-01T19:54:04.977Z,98732.39
2018-03-01T19:59:24.984Z,98731.41
2018-03-01T20:01:52.452Z,98732.95
2018-03-01T20:04:19.963Z,98728.27
2018-03-01T20:06:47.455Z,98729.28
2018-03-01T20:09:19.314Z,98725.69
2018-03-01T20:11:50.626Z,98728.27
2018-03-01T20:14:18.988Z,98718.77
2018-03-01T20:16:46.519Z,98720.19
2018-03-01T20:19:14.028Z,98712.23
2018-03-01T20:21:41.580Z,98705.09
2018-03-01T20:24:09.105Z,98702.95
2018-03-01T20:26:36.612Z,98697.14
2018-03-01T20:29:04.132Z,98699.47
2018-03-01T20:31:31.629Z,98695.19
2018-03-01T20:33:59.170Z,98699.39
2018-03-01T20:36:26.712Z,98693.77
2018-03-01T20:38:54.276Z,98695.50
2018-03-01T20:41:23.261Z,98697.55
2018-03-01T20:43:50.793Z,98711.23
2018-03-01T20:46:18.305Z,98719.20
2018-03-01T20:48:51.288Z,98715.32
2018-03-01T20:51:18.931Z,98711.95
2018-03-01T20:53:46.415Z,98707.66
2018-03-01T20:56:19.169Z,98688.86
2018-03-01T20:58:46.791Z,98691.10
2018-03-01T21:01:14.588Z,98696.12
2018-03-01T21:03:42.166Z,98697.73
2018-03-01T21:06:09.700Z,98704.05
2018-03-01T21:08:37.222Z,98696.73
2018-03-01T21:11:04.780Z,98693.44
2018-03-01T21:13:32.321Z,98686.09
2018-03-01T21:15:59.964Z,98689.14
2018-03-01T21:18:27.479Z,98672.41
2018-03-01T21:20:56.979Z,98662.48
2018-03-01T21:23:24.487Z,98669.84
2018-03-01T21:25:52.013Z,98655.14
2018-03-01T21:28:19.515Z,98642.16
2018-03-01T21:30:47.020Z,98648.98
2018-03-01T21:33:14.608Z,98645.48
2018-03-01T21:35:42.213Z,98647.34
2018-03-01T21:38:09.874Z,98642.36
2018-03-01T21:40:37.416Z,98646.88
2018-03-01T21:43:04.926Z,98636.16
2018-03-01T21:45:32.444Z,98633.00
2018-03-01T21:47:59.953Z,98624.59
2018-03-01T21:50:27.479Z,98627.35
2018-03-01T21:52:55.239Z,98633.98
2018-03-01T21:55:22.789Z,98640.34
2018-03-01T21:57:50.304Z,98635.75
2018-03-01T22:00:17.824Z,98635.56
2018-03-01T22:02:45.320Z,98624.45
2018-03-01T22:05:12.860Z,98624.05
2018-03-01T22:07:40.336Z,98625.68
2018-03-01T22:10:07.876Z,98634.55
2018-03-01T22:12:35.438Z,98637.63
2018-03-01T22:15:02.949Z,98643.44
2018-03-01T22:17:30.496Z,98644.86
2018-03-01T22:19:58.016Z,98643.25
2018-03-01T22:22:25.520Z,98640.70
2018-03-01T22:24:53.128Z,98638.27
2018-03-01T22:27:20.700Z,98642.84
2018-03-01T22:29:48.219Z,98643.38
2018-03-01T22:32:15.725Z,98644.39
2018-03-01T22:34:43.248Z,98632.98
2018-03-01T22:37:10.738Z,98635.73
2018-03-01T22:39:38.280Z,98630.52
2018-03-01T22:42:05.825Z,98630.20
2018-03-01T22:44:33.324Z,98636.86
2018-03-01T22:47:00.828Z,98625.53
2018-03-01T22:49:30.155Z,98617.05
2018-03-01T22:51:57.682Z,98624.70
2018-03-01T22:54:25.205Z,98627.94
2018-03-01T22:56:52.737Z,98616.08
2018-03-01T22:59:20.281Z,98617.48
2018-03-01T23:01:47.814Z,98613.28
2018-03-01T23:04:15.320Z,98609.27
2018-03-01T23:06:42.836Z,98603.20
2018-03-01T23:09:10.320Z,98603.02
2018-03-01T23:11:37.873Z,98605.55
2018-03-01T23:14:05.344Z,98592.73
2018-03-01T23:16:32.873Z,98590.72
2018-03-01T23:19:00.340Z,98586.41
2018-03-01T23:21:27.819Z,98596.72
2018-03-01T23:23:55.296Z,98593.30
2018-03-01T23:26:22.782Z,98582.02
2018-03-01T23:28:50.246Z,98590.45
2018-03-01T23:31:17.727Z,98590.55
2018-03-01T23:33:45.188Z,98590.33
2018-03-01T23:36:12.668Z,98590.23
2018-03-01T23:38:40.139Z,98594.25
2018-03-01T23:41:07.619Z,98578.50
2018-03-01T23:43:35.095Z,98579.32
2018-03-01T23:46:02.589Z,98574.48
2018-03-01T23:48:30.071Z,98560.03
2018-03-01T23:50:57.559Z,98566.86
2018-03-01T23:53:25.032Z,98555.55
2018-03-01T23:55:52.539Z,98565.45
2018-03-01T23:58:20.005Z,98554.22
